sensor_id;sensor_type;location;lat;lon;timestamp;P1;durP1;ratioP1;P2;durP2;ratioP2
17345;SDS011;8790;53.590;10.002;2023-12-22T00:01:33;11.63;;;2.43;;
17345;SDS011;8790;53.590;10.002;2023-12-22T00:04:05;10.30;;;2.60;;
17345;SDS011;8790;53.590;10.002;2023-12-22T00:06:37;10.17;;;2.30;;
17345;SDS011;8790;53.590;10.002;2023-12-22T00:09:08;13.63;;;2.70;;
17345;SDS011;8790;53.590;10.002;2023-12-22T00:11:41;13.57;;;2.77;;
17345;SDS011;8790;53.590;10.002;2023-12-22T00:14:12;13.60;;;3.00;;
17345;SDS011;8790;53.590;10.002;2023-12-22T00:16:44;15.13;;;2.97;;
17345;SDS011;8790;53.590;10.002;2023-12-22T00:19:15;22.33;;;4.87;;
17345;SDS011;8790;53.590;10.002;2023-12-22T00:21:47;13.43;;;2.50;;
17345;SDS011;8790;53.590;10.002;2023-12-22T00:24:18;11.47;;;2.33;;
17345;SDS011;8790;53.590;10.002;2023-12-22T00:26:51;11.50;;;2.20;;
17345;SDS011;8790;53.590;10.002;2023-12-22T00:29:22;11.67;;;2.53;;
17345;SDS011;8790;53.590;10.002;2023-12-22T00:31:54;13.70;;;2.47;;
17345;SDS011;8790;53.590;10.002;2023-12-22T00:34:26;10.60;;;2.30;;
17345;SDS011;8790;53.590;10.002;2023-12-22T00:36:57;11.50;;;2.57;;
17345;SDS011;8790;53.590;10.002;2023-12-22T00:39:30;16.33;;;2.90;;
17345;SDS011;8790;53.590;10.002;2023-12-22T00:42:04;14.87;;;2.50;;
17345;SDS011;8790;53.590;10.002;2023-12-22T00:44:35;16.50;;;2.90;;
17345;SDS011;8790;53.590;10.002;2023-12-22T00:47:07;13.33;;;2.43;;
17345;SDS011;8790;53.590;10.002;2023-12-22T00:49:38;13.40;;;3.10;;
17345;SDS011;8790;53.590;10.002;2023-12-22T00:52:10;18.53;;;2.70;;
17345;SDS011;8790;53.590;10.002;2023-12-22T00:54:41;14.07;;;3.30;;
17345;SDS011;8790;53.590;10.002;2023-12-22T00:57:14;13.27;;;2.83;;
17345;SDS011;8790;53.590;10.002;2023-12-22T00:59:45;14.53;;;3.03;;
17345;SDS011;8790;53.590;10.002;2023-12-22T01:02:18;13.03;;;2.33;;
17345;SDS011;8790;53.590;10.002;2023-12-22T01:04:50;16.80;;;3.30;;
17345;SDS011;8790;53.590;10.002;2023-12-22T01:07:21;14.70;;;3.07;;
17345;SDS011;8790;53.590;10.002;2023-12-22T01:09:53;12.70;;;2.67;;
17345;SDS011;8790;53.590;10.002;2023-12-22T01:12:26;15.53;;;2.60;;
17345;SDS011;8790;53.590;10.002;2023-12-22T01:14:57;16.27;;;2.70;;
17345;SDS011;8790;53.590;10.002;2023-12-22T01:17:28;10.23;;;2.93;;
17345;SDS011;8790;53.590;10.002;2023-12-22T01:20:00;10.60;;;2.23;;
17345;SDS011;8790;53.590;10.002;2023-12-22T01:22:32;9.63;;;1.97;;
17345;SDS011;8790;53.590;10.002;2023-12-22T01:25:04;10.20;;;2.30;;
17345;SDS011;8790;53.590;10.002;2023-12-22T01:27:38;7.40;;;1.60;;
17345;SDS011;8790;53.590;10.002;2023-12-22T01:30:09;4.80;;;1.07;;
17345;SDS011;8790;53.590;10.002;2023-12-22T01:32:40;4.60;;;1.30;;
17345;SDS011;8790;53.590;10.002;2023-12-22T01:35:12;7.27;;;1.30;;
17345;SDS011;8790;53.590;10.002;2023-12-22T01:37:44;3.80;;;1.00;;
17345;SDS011;8790;53.590;10.002;2023-12-22T01:40:17;3.90;;;1.10;;
17345;SDS011;8790;53.590;10.002;2023-12-22T01:42:50;4.13;;;0.90;;
17345;SDS011;8790;53.590;10.002;2023-12-22T01:45:21;5.73;;;0.90;;
17345;SDS011;8790;53.590;10.002;2023-12-22T01:47:53;2.23;;;0.70;;
17345;SDS011;8790;53.590;10.002;2023-12-22T01:50:25;5.97;;;1.20;;
17345;SDS011;8790;53.590;10.002;2023-12-22T01:52:56;3.57;;;0.77;;
17345;SDS011;8790;53.590;10.002;2023-12-22T01:55:28;2.17;;;0.50;;
17345;SDS011;8790;53.590;10.002;2023-12-22T01:58:01;5.53;;;1.10;;
17345;SDS011;8790;53.590;10.002;2023-12-22T02:00:32;3.47;;;1.30;;
17345;SDS011;8790;53.590;10.002;2023-12-22T02:03:03;2.30;;;0.80;;
17345;SDS011;8790;53.590;10.002;2023-12-22T02:05:35;4.23;;;0.73;;
17345;SDS011;8790;53.590;10.002;2023-12-22T02:08:07;3.03;;;0.90;;
17345;SDS011;8790;53.590;10.002;2023-12-22T02:10:39;3.27;;;0.90;;
17345;SDS011;8790;53.590;10.002;2023-12-22T02:13:12;4.20;;;1.03;;
17345;SDS011;8790;53.590;10.002;2023-12-22T02:15:43;4.90;;;0.73;;
17345;SDS011;8790;53.590;10.002;2023-12-22T02:18:16;2.63;;;0.70;;
17345;SDS011;8790;53.590;10.002;2023-12-22T02:20:50;2.93;;;0.77;;
17345;SDS011;8790;53.590;10.002;2023-12-22T02:23:23;4.43;;;0.80;;
17345;SDS011;8790;53.590;10.002;2023-12-22T02:25:57;2.73;;;0.90;;
17345;SDS011;8790;53.590;10.002;2023-12-22T02:28:37;3.57;;;0.80;;
17345;SDS011;8790;53.590;10.002;2023-12-22T02:31:09;4.33;;;1.07;;
17345;SDS011;8790;53.590;10.002;2023-12-22T02:33:48;5.97;;;1.53;;
17345;SDS011;8790;53.590;10.002;2023-12-22T02:36:20;5.27;;;1.03;;
17345;SDS011;8790;53.590;10.002;2023-12-22T02:38:53;7.37;;;1.87;;
17345;SDS011;8790;53.590;10.002;2023-12-22T02:41:26;7.17;;;1.27;;
17345;SDS011;8790;53.590;10.002;2023-12-22T02:43:57;6.53;;;1.30;;
17345;SDS011;8790;53.590;10.002;2023-12-22T02:46:29;5.83;;;1.10;;
17345;SDS011;8790;53.590;10.002;2023-12-22T02:49:01;3.53;;;0.83;;
17345;SDS011;8790;53.590;10.002;2023-12-22T02:51:32;6.97;;;1.20;;
17345;SDS011;8790;53.590;10.002;2023-12-22T02:54:05;4.30;;;0.93;;
17345;SDS011;8790;53.590;10.002;2023-12-22T02:56:36;5.27;;;1.17;;
17345;SDS011;8790;53.590;10.002;2023-12-22T02:59:08;5.50;;;1.00;;
17345;SDS011;8790;53.590;10.002;2023-12-22T03:01:39;6.07;;;0.97;;
17345;SDS011;8790;53.590;10.002;2023-12-22T03:04:11;3.87;;;1.13;;
17345;SDS011;8790;53.590;10.002;2023-12-22T03:06:42;3.53;;;0.70;;
17345;SDS011;8790;53.590;10.002;2023-12-22T03:09:15;3.27;;;0.60;;
17345;SDS011;8790;53.590;10.002;2023-12-22T03:11:46;0.93;;;0.50;;
17345;SDS011;8790;53.590;10.002;2023-12-22T03:14:18;2.60;;;0.43;;
17345;SDS011;8790;53.590;10.002;2023-12-22T03:16:50;2.43;;;0.50;;
17345;SDS011;8790;53.590;10.002;2023-12-22T03:19:21;2.27;;;0.80;;
17345;SDS011;8790;53.590;10.002;2023-12-22T03:21:53;3.30;;;0.40;;
17345;SDS011;8790;53.590;10.002;2023-12-22T03:24:26;1.77;;;0.43;;
17345;SDS011;8790;53.590;10.002;2023-12-22T03:26:58;5.40;;;0.80;;
17345;SDS011;8790;53.590;10.002;2023-12-22T03:29:30;2.53;;;0.50;;
17345;SDS011;8790;53.590;10.002;2023-12-22T03:32:01;1.40;;;0.70;;
17345;SDS011;8790;53.590;10.002;2023-12-22T03:34:32;0.87;;;0.40;;
17345;SDS011;8790;53.590;10.002;2023-12-22T03:37:04;0.70;;;0.43;;
17345;SDS011;8790;53.590;10.002;2023-12-22T03:39:37;3.00;;;0.87;;
17345;SDS011;8790;53.590;10.002;2023-12-22T03:42:08;3.03;;;0.80;;
17345;SDS011;8790;53.590;10.002;2023-12-22T03:44:40;2.80;;;0.67;;
17345;SDS011;8790;53.590;10.002;2023-12-22T03:47:11;2.43;;;0.50;;
17345;SDS011;8790;53.590;10.002;2023-12-22T03:49:43;2.20;;;0.50;;
17345;SDS011;8790;53.590;10.002;2023-12-22T03:52:14;3.60;;;0.60;;
17345;SDS011;8790;53.590;10.002;2023-12-22T03:54:47;3.07;;;0.70;;
17345;SDS011;8790;53.590;10.002;2023-12-22T03:57:18;4.03;;;0.90;;
17345;SDS011;8790;53.590;10.002;2023-12-22T03:59:50;2.97;;;0.80;;
17345;SDS011;8790;53.590;10.002;2023-12-22T04:02:21;7.37;;;0.93;;
17345;SDS011;8790;53.590;10.002;2023-12-22T04:04:52;4.40;;;0.73;;
17345;SDS011;8790;53.590;10.002;2023-12-22T04:07:24;7.60;;;1.00;;
17345;SDS011;8790;53.590;10.002;2023-12-22T04:09:57;5.97;;;0.93;;
17345;SDS011;8790;53.590;10.002;2023-12-22T04:12:28;5.40;;;1.10;;
17345;SDS011;8790;53.590;10.002;2023-12-22T04:14:59;4.03;;;1.20;;
17345;SDS011;8790;53.590;10.002;2023-12-22T04:17:31;7.63;;;1.20;;
17345;SDS011;8790;53.590;10.002;2023-12-22T04:20:02;6.93;;;1.23;;
17345;SDS011;8790;53.590;10.002;2023-12-22T04:22:34;7.47;;;1.23;;
17345;SDS011;8790;53.590;10.002;2023-12-22T04:25:07;4.80;;;1.13;;
17345;SDS011;8790;53.590;10.002;2023-12-22T04:27:39;6.37;;;0.93;;
17345;SDS011;8790;53.590;10.002;2023-12-22T04:30:11;10.43;;;1.30;;
17345;SDS011;8790;53.590;10.002;2023-12-22T04:32:43;6.33;;;1.30;;
17345;SDS011;8790;53.590;10.002;2023-12-22T04:35:14;5.67;;;1.07;;
17345;SDS011;8790;53.590;10.002;2023-12-22T04:37:46;7.10;;;1.53;;
17345;SDS011;8790;53.590;10.002;2023-12-22T04:40:19;7.97;;;1.50;;
17345;SDS011;8790;53.590;10.002;2023-12-22T04:42:50;11.13;;;1.20;;
17345;SDS011;8790;53.590;10.002;2023-12-22T04:45:22;6.03;;;1.27;;
17345;SDS011;8790;53.590;10.002;2023-12-22T04:47:53;5.43;;;1.10;;
17345;SDS011;8790;53.590;10.002;2023-12-22T04:50:24;6.13;;;1.20;;
17345;SDS011;8790;53.590;10.002;2023-12-22T04:52:56;6.47;;;1.00;;
17345;SDS011;8790;53.590;10.002;2023-12-22T04:55:29;5.97;;;1.27;;
17345;SDS011;8790;53.590;10.002;2023-12-22T04:58:00;7.10;;;1.30;;
17345;SDS011;8790;53.590;10.002;2023-12-22T05:00:32;7.93;;;1.27;;
17345;SDS011;8790;53.590;10.002;2023-12-22T05:03:04;8.20;;;2.00;;
17345;SDS011;8790;53.590;10.002;2023-12-22T05:05:35;6.30;;;1.30;;
17345;SDS011;8790;53.590;10.002;2023-12-22T05:08:06;5.43;;;1.13;;
17345;SDS011;8790;53.590;10.002;2023-12-22T05:10:39;7.90;;;1.40;;
17345;SDS011;8790;53.590;10.002;2023-12-22T05:13:11;7.53;;;1.30;;
17345;SDS011;8790;53.590;10.002;2023-12-22T05:15:42;3.60;;;1.10;;
17345;SDS011;8790;53.590;10.002;2023-12-22T05:18:15;8.97;;;1.90;;
17345;SDS011;8790;53.590;10.002;2023-12-22T05:20:47;6.13;;;0.97;;
17345;SDS011;8790;53.590;10.002;2023-12-22T05:23:18;5.67;;;1.00;;
17345;SDS011;8790;53.590;10.002;2023-12-22T05:25:51;4.27;;;1.10;;
17345;SDS011;8790;53.590;10.002;2023-12-22T05:28:23;3.53;;;0.97;;
17345;SDS011;8790;53.590;10.002;2023-12-22T05:30:54;4.43;;;1.20;;
17345;SDS011;8790;53.590;10.002;2023-12-22T05:33:25;6.63;;;1.30;;
17345;SDS011;8790;53.590;10.002;2023-12-22T05:35:57;10.37;;;1.30;;
17345;SDS011;8790;53.590;10.002;2023-12-22T05:38:28;6.00;;;1.47;;
17345;SDS011;8790;53.590;10.002;2023-12-22T05:41:02;4.37;;;1.03;;
17345;SDS011;8790;53.590;10.002;2023-12-22T05:43:33;3.60;;;0.90;;
17345;SDS011;8790;53.590;10.002;2023-12-22T05:46:05;5.97;;;0.97;;
17345;SDS011;8790;53.590;10.002;2023-12-22T05:48:36;7.10;;;1.30;;
17345;SDS011;8790;53.590;10.002;2023-12-22T05:51:08;8.93;;;1.20;;
17345;SDS011;8790;53.590;10.002;2023-12-22T05:53:43;7.37;;;1.80;;
17345;SDS011;8790;53.590;10.002;2023-12-22T05:56:19;6.40;;;1.33;;
17345;SDS011;8790;53.590;10.002;2023-12-22T05:58:50;5.07;;;1.10;;
17345;SDS011;8790;53.590;10.002;2023-12-22T06:01:22;5.27;;;1.07;;
17345;SDS011;8790;53.590;10.002;2023-12-22T06:03:53;4.23;;;1.10;;
17345;SDS011;8790;53.590;10.002;2023-12-22T06:06:24;3.50;;;0.93;;
17345;SDS011;8790;53.590;10.002;2023-12-22T06:08:57;4.67;;;1.10;;
17345;SDS011;8790;53.590;10.002;2023-12-22T06:11:30;5.83;;;0.87;;
17345;SDS011;8790;53.590;10.002;2023-12-22T06:14:01;3.00;;;0.73;;
17345;SDS011;8790;53.590;10.002;2023-12-22T06:16:33;3.67;;;0.90;;
17345;SDS011;8790;53.590;10.002;2023-12-22T06:19:05;4.67;;;1.00;;
17345;SDS011;8790;53.590;10.002;2023-12-22T06:21:37;2.50;;;0.80;;
17345;SDS011;8790;53.590;10.002;2023-12-22T06:24:08;3.50;;;0.90;;
17345;SDS011;8790;53.590;10.002;2023-12-22T06:26:41;7.43;;;1.23;;
17345;SDS011;8790;53.590;10.002;2023-12-22T06:29:12;5.03;;;1.17;;
17345;SDS011;8790;53.590;10.002;2023-12-22T06:31:44;7.17;;;1.30;;
17345;SDS011;8790;53.590;10.002;2023-12-22T06:34:20;5.00;;;1.40;;
17345;SDS011;8790;53.590;10.002;2023-12-22T06:36:51;7.53;;;1.13;;
17345;SDS011;8790;53.590;10.002;2023-12-22T06:39:23;6.87;;;1.50;;
17345;SDS011;8790;53.590;10.002;2023-12-22T06:41:56;6.23;;;1.30;;
17345;SDS011;8790;53.590;10.002;2023-12-22T06:44:27;4.23;;;1.17;;
17345;SDS011;8790;53.590;10.002;2023-12-22T06:47:00;7.37;;;1.37;;
17345;SDS011;8790;53.590;10.002;2023-12-22T06:49:31;7.10;;;1.70;;
17345;SDS011;8790;53.590;10.002;2023-12-22T06:52:02;9.53;;;1.70;;
17345;SDS011;8790;53.590;10.002;2023-12-22T06:54:34;16.50;;;2.07;;
17345;SDS011;8790;53.590;10.002;2023-12-22T06:57:07;9.37;;;2.00;;
17345;SDS011;8790;53.590;10.002;2023-12-22T06:59:38;9.73;;;2.07;;
17345;SDS011;8790;53.590;10.002;2023-12-22T07:02:10;13.33;;;2.23;;
17345;SDS011;8790;53.590;10.002;2023-12-22T07:04:41;8.73;;;1.77;;
17345;SDS011;8790;53.590;10.002;2023-12-22T07:07:34;13.40;;;2.50;;
17345;SDS011;8790;53.590;10.002;2023-12-22T07:10:06;13.07;;;2.37;;
17345;SDS011;8790;53.590;10.002;2023-12-22T07:12:39;13.73;;;2.50;;
17345;SDS011;8790;53.590;10.002;2023-12-22T07:15:10;13.00;;;2.67;;
17345;SDS011;8790;53.590;10.002;2023-12-22T07:17:42;15.37;;;2.50;;
17345;SDS011;8790;53.590;10.002;2023-12-22T07:20:13;18.40;;;2.40;;
17345;SDS011;8790;53.590;10.002;2023-12-22T07:22:45;12.27;;;2.40;;
17345;SDS011;8790;53.590;10.002;2023-12-22T07:25:17;11.17;;;2.20;;
17345;SDS011;8790;53.590;10.002;2023-12-22T07:27:51;13.00;;;2.20;;
17345;SDS011;8790;53.590;10.002;2023-12-22T07:30:22;9.80;;;2.27;;
17345;SDS011;8790;53.590;10.002;2023-12-22T07:32:54;12.07;;;2.40;;
17345;SDS011;8790;53.590;10.002;2023-12-22T07:35:25;9.87;;;2.07;;
17345;SDS011;8790;53.590;10.002;2023-12-22T07:37:57;13.10;;;2.60;;
17345;SDS011;8790;53.590;10.002;2023-12-22T07:40:28;14.03;;;2.27;;
17345;SDS011;8790;53.590;10.002;2023-12-22T07:43:01;10.30;;;2.13;;
17345;SDS011;8790;53.590;10.002;2023-12-22T07:45:34;12.33;;;1.73;;
17345;SDS011;8790;53.590;10.002;2023-12-22T07:48:05;9.30;;;2.00;;
17345;SDS011;8790;53.590;10.002;2023-12-22T07:50:37;10.10;;;1.97;;
17345;SDS011;8790;53.590;10.002;2023-12-22T07:53:08;8.00;;;1.67;;
17345;SDS011;8790;53.590;10.002;2023-12-22T07:55:40;10.80;;;2.30;;
17345;SDS011;8790;53.590;10.002;2023-12-22T07:58:12;13.50;;;2.80;;
17345;SDS011;8790;53.590;10.002;2023-12-22T08:00:44;11.10;;;1.80;;
17345;SDS011;8790;53.590;10.002;2023-12-22T08:03:16;9.53;;;1.80;;
17345;SDS011;8790;53.590;10.002;2023-12-22T08:05:49;10.50;;;1.77;;
17345;SDS011;8790;53.590;10.002;2023-12-22T08:08:21;5.63;;;1.20;;
17345;SDS011;8790;53.590;10.002;2023-12-22T08:10:52;13.33;;;2.10;;
17345;SDS011;8790;53.590;10.002;2023-12-22T08:13:25;9.80;;;2.03;;
17345;SDS011;8790;53.590;10.002;2023-12-22T08:15:57;4.60;;;1.27;;
17345;SDS011;8790;53.590;10.002;2023-12-22T08:18:29;7.43;;;1.43;;
17345;SDS011;8790;53.590;10.002;2023-12-22T08:21:01;7.17;;;1.50;;
17345;SDS011;8790;53.590;10.002;2023-12-22T08:23:32;6.73;;;1.37;;
17345;SDS011;8790;53.590;10.002;2023-12-22T08:26:03;6.53;;;1.70;;
17345;SDS011;8790;53.590;10.002;2023-12-22T08:28:36;5.97;;;1.00;;
17345;SDS011;8790;53.590;10.002;2023-12-22T08:31:08;8.00;;;1.47;;
17345;SDS011;8790;53.590;10.002;2023-12-22T08:33:40;5.90;;;1.20;;
17345;SDS011;8790;53.590;10.002;2023-12-22T08:36:13;8.90;;;1.50;;
17345;SDS011;8790;53.590;10.002;2023-12-22T08:38:44;7.07;;;1.43;;
17345;SDS011;8790;53.590;10.002;2023-12-22T08:41:16;7.57;;;1.50;;
17345;SDS011;8790;53.590;10.002;2023-12-22T08:43:49;6.50;;;1.30;;
17345;SDS011;8790;53.590;10.002;2023-12-22T08:46:20;8.57;;;1.80;;
17345;SDS011;8790;53.590;10.002;2023-12-22T08:48:51;8.57;;;1.70;;
17345;SDS011;8790;53.590;10.002;2023-12-22T08:51:23;7.93;;;1.80;;
17345;SDS011;8790;53.590;10.002;2023-12-22T08:53:54;10.53;;;1.57;;
17345;SDS011;8790;53.590;10.002;2023-12-22T08:56:26;7.10;;;1.63;;
17345;SDS011;8790;53.590;10.002;2023-12-22T08:58:59;6.87;;;1.33;;
17345;SDS011;8790;53.590;10.002;2023-12-22T09:01:31;5.73;;;1.60;;
17345;SDS011;8790;53.590;10.002;2023-12-22T09:04:02;5.53;;;1.40;;
17345;SDS011;8790;53.590;10.002;2023-12-22T09:06:33;5.73;;;1.20;;
17345;SDS011;8790;53.590;10.002;2023-12-22T09:09:05;6.47;;;1.33;;
17345;SDS011;8790;53.590;10.002;2023-12-22T09:11:37;10.10;;;1.00;;
17345;SDS011;8790;53.590;10.002;2023-12-22T09:14:10;11.23;;;1.70;;
17345;SDS011;8790;53.590;10.002;2023-12-22T09:16:41;7.97;;;1.23;;
17345;SDS011;8790;53.590;10.002;2023-12-22T09:19:15;4.37;;;1.07;;
17345;SDS011;8790;53.590;10.002;2023-12-22T09:21:47;4.53;;;0.90;;
17345;SDS011;8790;53.590;10.002;2023-12-22T09:24:18;6.53;;;1.67;;
17345;SDS011;8790;53.590;10.002;2023-12-22T09:26:51;5.77;;;1.27;;
17345;SDS011;8790;53.590;10.002;2023-12-22T09:29:24;4.97;;;0.93;;
17345;SDS011;8790;53.590;10.002;2023-12-22T09:31:56;8.50;;;1.53;;
17345;SDS011;8790;53.590;10.002;2023-12-22T09:34:28;7.70;;;1.30;;
17345;SDS011;8790;53.590;10.002;2023-12-22T09:37:00;5.73;;;1.47;;
17345;SDS011;8790;53.590;10.002;2023-12-22T09:39:31;8.73;;;1.30;;
17345;SDS011;8790;53.590;10.002;2023-12-22T09:42:03;6.17;;;1.27;;
17345;SDS011;8790;53.590;10.002;2023-12-22T09:44:37;6.83;;;1.57;;
17345;SDS011;8790;53.590;10.002;2023-12-22T09:47:10;6.77;;;1.20;;
17345;SDS011;8790;53.590;10.002;2023-12-22T09:49:42;8.13;;;1.40;;
17345;SDS011;8790;53.590;10.002;2023-12-22T09:52:14;8.47;;;1.57;;
17345;SDS011;8790;53.590;10.002;2023-12-22T09:54:47;9.70;;;1.37;;
17345;SDS011;8790;53.590;10.002;2023-12-22T09:57:19;9.43;;;1.63;;
17345;SDS011;8790;53.590;10.002;2023-12-22T09:59:52;5.23;;;1.50;;
17345;SDS011;8790;53.590;10.002;2023-12-22T10:02:25;8.13;;;1.53;;
17345;SDS011;8790;53.590;10.002;2023-12-22T10:04:57;11.43;;;1.70;;
17345;SDS011;8790;53.590;10.002;2023-12-22T10:07:28;8.83;;;1.53;;
17345;SDS011;8790;53.590;10.002;2023-12-22T10:10:01;8.87;;;1.70;;
17345;SDS011;8790;53.590;10.002;2023-12-22T10:12:35;4.37;;;1.30;;
17345;SDS011;8790;53.590;10.002;2023-12-22T10:15:09;7.77;;;1.40;;
17345;SDS011;8790;53.590;10.002;2023-12-22T10:17:42;9.00;;;1.30;;
17345;SDS011;8790;53.590;10.002;2023-12-22T10:20:14;9.17;;;1.60;;
17345;SDS011;8790;53.590;10.002;2023-12-22T10:22:45;7.20;;;1.50;;
17345;SDS011;8790;53.590;10.002;2023-12-22T10:25:19;9.13;;;1.70;;
17345;SDS011;8790;53.590;10.002;2023-12-22T10:27:51;11.90;;;1.93;;
17345;SDS011;8790;53.590;10.002;2023-12-22T10:30:25;6.20;;;1.43;;
17345;SDS011;8790;53.590;10.002;2023-12-22T10:32:57;8.30;;;1.93;;
17345;SDS011;8790;53.590;10.002;2023-12-22T10:35:29;6.83;;;1.53;;
17345;SDS011;8790;53.590;10.002;2023-12-22T10:38:01;9.47;;;1.80;;
17345;SDS011;8790;53.590;10.002;2023-12-22T10:40:32;7.00;;;1.70;;
17345;SDS011;8790;53.590;10.002;2023-12-22T10:43:04;10.00;;;1.50;;
17345;SDS011;8790;53.590;10.002;2023-12-22T10:45:36;7.30;;;1.43;;
17345;SDS011;8790;53.590;10.002;2023-12-22T10:48:10;13.67;;;2.03;;
17345;SDS011;8790;53.590;10.002;2023-12-22T10:50:41;9.83;;;1.60;;
17345;SDS011;8790;53.590;10.002;2023-12-22T10:53:14;5.20;;;1.27;;
17345;SDS011;8790;53.590;10.002;2023-12-22T10:55:46;8.40;;;1.33;;
17345;SDS011;8790;53.590;10.002;2023-12-22T10:58:20;8.43;;;1.57;;
17345;SDS011;8790;53.590;10.002;2023-12-22T11:00:53;6.70;;;1.40;;
17345;SDS011;8790;53.590;10.002;2023-12-22T11:03:25;7.13;;;1.40;;
17345;SDS011;8790;53.590;10.002;2023-12-22T11:05:57;8.50;;;1.50;;
17345;SDS011;8790;53.590;10.002;2023-12-22T11:08:30;5.37;;;1.43;;
17345;SDS011;8790;53.590;10.002;2023-12-22T11:11:04;6.70;;;1.40;;
17345;SDS011;8790;53.590;10.002;2023-12-22T11:13:41;5.67;;;1.27;;
17345;SDS011;8790;53.590;10.002;2023-12-22T11:16:15;8.50;;;1.50;;
17345;SDS011;8790;53.590;10.002;2023-12-22T11:18:48;9.33;;;1.50;;
17345;SDS011;8790;53.590;10.002;2023-12-22T11:21:20;6.17;;;1.50;;
17345;SDS011;8790;53.590;10.002;2023-12-22T11:23:53;5.70;;;1.03;;
17345;SDS011;8790;53.590;10.002;2023-12-22T11:26:24;8.40;;;1.57;;
17345;SDS011;8790;53.590;10.002;2023-12-22T11:28:56;5.20;;;1.50;;
17345;SDS011;8790;53.590;10.002;2023-12-22T11:31:29;6.77;;;1.27;;
17345;SDS011;8790;53.590;10.002;2023-12-22T11:34:02;7.87;;;1.60;;
17345;SDS011;8790;53.590;10.002;2023-12-22T11:36:36;2.67;;;1.43;;
17345;SDS011;8790;53.590;10.002;2023-12-22T11:39:09;6.60;;;1.10;;
17345;SDS011;8790;53.590;10.002;2023-12-22T11:41:40;7.00;;;1.30;;
17345;SDS011;8790;53.590;10.002;2023-12-22T11:44:12;4.00;;;1.10;;
17345;SDS011;8790;53.590;10.002;2023-12-22T11:46:45;7.63;;;1.50;;
17345;SDS011;8790;53.590;10.002;2023-12-22T11:49:17;4.00;;;0.97;;
17345;SDS011;8790;53.590;10.002;2023-12-22T11:51:49;6.53;;;1.27;;
17345;SDS011;8790;53.590;10.002;2023-12-22T11:57:30;6.57;;;1.40;;
17345;SDS011;8790;53.590;10.002;2023-12-22T12:00:06;8.43;;;1.57;;
17345;SDS011;8790;53.590;10.002;2023-12-22T12:02:43;8.87;;;1.40;;
17345;SDS011;8790;53.590;10.002;2023-12-22T12:05:25;7.07;;;1.50;;
17345;SDS011;8790;53.590;10.002;2023-12-22T12:08:02;8.80;;;1.43;;
17345;SDS011;8790;53.590;10.002;2023-12-22T12:10:50;4.63;;;1.20;;
17345;SDS011;8790;53.590;10.002;2023-12-22T12:13:24;9.43;;;1.57;;
17345;SDS011;8790;53.590;10.002;2023-12-22T12:15:57;7.23;;;1.67;;
17345;SDS011;8790;53.590;10.002;2023-12-22T12:18:32;8.63;;;1.60;;
17345;SDS011;8790;53.590;10.002;2023-12-22T12:21:05;9.00;;;1.83;;
17345;SDS011;8790;53.590;10.002;2023-12-22T12:23:37;8.20;;;1.53;;
17345;SDS011;8790;53.590;10.002;2023-12-22T12:26:09;4.53;;;1.37;;
17345;SDS011;8790;53.590;10.002;2023-12-22T12:28:44;7.80;;;1.70;;
17345;SDS011;8790;53.590;10.002;2023-12-22T12:31:16;12.97;;;2.50;;
17345;SDS011;8790;53.590;10.002;2023-12-22T12:33:49;9.43;;;1.50;;
17345;SDS011;8790;53.590;10.002;2023-12-22T12:36:20;8.07;;;1.80;;
17345;SDS011;8790;53.590;10.002;2023-12-22T12:38:53;7.40;;;1.63;;
17345;SDS011;8790;53.590;10.002;2023-12-22T12:41:29;9.53;;;1.60;;
17345;SDS011;8790;53.590;10.002;2023-12-22T12:44:03;6.50;;;1.63;;
17345;SDS011;8790;53.590;10.002;2023-12-22T12:46:35;11.83;;;2.07;;
17345;SDS011;8790;53.590;10.002;2023-12-22T12:49:08;10.63;;;2.13;;
17345;SDS011;8790;53.590;10.002;2023-12-22T12:51:41;7.23;;;1.60;;
17345;SDS011;8790;53.590;10.002;2023-12-22T12:54:15;10.77;;;1.67;;
17345;SDS011;8790;53.590;10.002;2023-12-22T12:56:46;10.67;;;1.70;;
17345;SDS011;8790;53.590;10.002;2023-12-22T12:59:18;11.10;;;2.40;;
17345;SDS011;8790;53.590;10.002;2023-12-22T13:01:50;10.10;;;1.73;;
17345;SDS011;8790;53.590;10.002;2023-12-22T13:04:24;10.27;;;2.17;;
17345;SDS011;8790;53.590;10.002;2023-12-22T13:07:07;7.93;;;1.70;;
17345;SDS011;8790;53.590;10.002;2023-12-22T13:09:40;10.00;;;2.57;;
17345;SDS011;8790;53.590;10.002;2023-12-22T13:12:13;8.63;;;1.70;;
17345;SDS011;8790;53.590;10.002;2023-12-22T13:14:44;10.63;;;1.90;;
17345;SDS011;8790;53.590;10.002;2023-12-22T13:17:16;9.27;;;1.77;;
17345;SDS011;8790;53.590;10.002;2023-12-22T13:19:49;12.73;;;2.10;;
17345;SDS011;8790;53.590;10.002;2023-12-22T13:22:20;13.90;;;2.23;;
17345;SDS011;8790;53.590;10.002;2023-12-22T13:24:55;6.67;;;1.87;;
17345;SDS011;8790;53.590;10.002;2023-12-22T13:27:27;8.87;;;1.73;;
17345;SDS011;8790;53.590;10.002;2023-12-22T13:29:58;11.97;;;2.53;;
17345;SDS011;8790;53.590;10.002;2023-12-22T13:32:30;8.30;;;1.53;;
17345;SDS011;8790;53.590;10.002;2023-12-22T13:35:03;9.37;;;1.60;;
17345;SDS011;8790;53.590;10.002;2023-12-22T13:37:40;8.83;;;1.40;;
17345;SDS011;8790;53.590;10.002;2023-12-22T13:40:12;11.07;;;2.07;;
17345;SDS011;8790;53.590;10.002;2023-12-22T13:42:44;9.70;;;1.90;;
17345;SDS011;8790;53.590;10.002;2023-12-22T13:45:15;9.50;;;1.57;;
17345;SDS011;8790;53.590;10.002;2023-12-22T13:47:47;7.13;;;1.47;;
17345;SDS011;8790;53.590;10.002;2023-12-22T13:50:20;8.70;;;1.60;;
17345;SDS011;8790;53.590;10.002;2023-12-22T13:52:53;7.53;;;1.20;;
17345;SDS011;8790;53.590;10.002;2023-12-22T13:55:24;11.60;;;1.83;;
17345;SDS011;8790;53.590;10.002;2023-12-22T13:57:58;8.13;;;2.00;;
17345;SDS011;8790;53.590;10.002;2023-12-22T14:00:31;5.40;;;1.57;;
17345;SDS011;8790;53.590;10.002;2023-12-22T14:03:02;8.47;;;1.57;;
17345;SDS011;8790;53.590;10.002;2023-12-22T14:05:35;6.27;;;1.10;;
17345;SDS011;8790;53.590;10.002;2023-12-22T14:08:06;6.57;;;1.67;;
17345;SDS011;8790;53.590;10.002;2023-12-22T14:10:44;9.03;;;1.40;;
17345;SDS011;8790;53.590;10.002;2023-12-22T14:13:16;7.67;;;1.57;;
17345;SDS011;8790;53.590;10.002;2023-12-22T14:15:47;14.20;;;1.93;;
17345;SDS011;8790;53.590;10.002;2023-12-22T14:18:19;6.43;;;1.40;;
17345;SDS011;8790;53.590;10.002;2023-12-22T14:20:51;6.43;;;1.33;;
17345;SDS011;8790;53.590;10.002;2023-12-22T14:23:23;4.97;;;1.27;;
17345;SDS011;8790;53.590;10.002;2023-12-22T14:25:54;4.30;;;1.00;;
17345;SDS011;8790;53.590;10.002;2023-12-22T14:28:25;6.67;;;1.33;;
17345;SDS011;8790;53.590;10.002;2023-12-22T14:30:57;4.03;;;0.93;;
17345;SDS011;8790;53.590;10.002;2023-12-22T14:33:29;9.93;;;1.63;;
17345;SDS011;8790;53.590;10.002;2023-12-22T14:36:02;7.00;;;1.00;;
17345;SDS011;8790;53.590;10.002;2023-12-22T14:38:33;6.57;;;1.33;;
17345;SDS011;8790;53.590;10.002;2023-12-22T14:41:06;4.40;;;1.00;;
17345;SDS011;8790;53.590;10.002;2023-12-22T14:43:37;6.27;;;1.40;;
17345;SDS011;8790;53.590;10.002;2023-12-22T14:46:08;6.00;;;1.20;;
17345;SDS011;8790;53.590;10.002;2023-12-22T14:48:40;3.70;;;1.10;;
17345;SDS011;8790;53.590;10.002;2023-12-22T14:51:13;6.60;;;1.43;;
17345;SDS011;8790;53.590;10.002;2023-12-22T14:53:45;3.90;;;1.40;;
17345;SDS011;8790;53.590;10.002;2023-12-22T14:56:16;4.80;;;1.30;;
17345;SDS011;8790;53.590;10.002;2023-12-22T14:58:47;6.53;;;1.23;;
17345;SDS011;8790;53.590;10.002;2023-12-22T15:01:19;5.30;;;1.40;;
17345;SDS011;8790;53.590;10.002;2023-12-22T15:03:50;4.73;;;1.33;;
17345;SDS011;8790;53.590;10.002;2023-12-22T15:06:23;6.33;;;1.43;;
17345;SDS011;8790;53.590;10.002;2023-12-22T15:08:54;3.47;;;0.90;;
17345;SDS011;8790;53.590;10.002;2023-12-22T15:11:26;7.13;;;1.23;;
17345;SDS011;8790;53.590;10.002;2023-12-22T15:13:57;5.03;;;1.13;;
17345;SDS011;8790;53.590;10.002;2023-12-22T15:16:29;3.53;;;1.00;;
17345;SDS011;8790;53.590;10.002;2023-12-22T15:19:01;6.63;;;1.20;;